createdAt,value
2019-06-20T00:00:23.775Z,16.70
2019-06-20T00:03:25.210Z,16.70
2019-06-20T00:06:26.713Z,16.70
2019-06-20T00:09:28.231Z,16.70
2019-06-20T00:12:29.724Z,16.70
2019-06-20T00:15:31.245Z,16.60
2019-06-20T00:18:32.731Z,16.50
2019-06-20T00:21:34.264Z,16.60
2019-06-20T00:24:35.754Z,16.50
2019-06-20T00:27:37.387Z,16.50
2019-06-20T00:30:39.382Z,16.50
2019-06-20T00:33:40.899Z,16.50
2019-06-20T00:36:42.405Z,16.60
2019-06-20T00:39:43.851Z,16.50
2019-06-20T00:42:45.340Z,16.50
2019-06-20T00:45:47.383Z,16.50
2019-06-20T00:48:48.782Z,16.50
2019-06-20T00:51:50.631Z,16.50
2019-06-20T00:54:52.109Z,16.50
2019-06-20T00:57:53.556Z,16.50
2019-06-20T01:00:55.143Z,16.50
2019-06-20T01:03:56.588Z,16.40
2019-06-20T01:06:58.125Z,16.50
2019-06-20T01:09:59.634Z,16.50
2019-06-20T01:13:01.114Z,16.50
2019-06-20T01:16:02.793Z,16.50
2019-06-20T01:19:04.142Z,16.50
2019-06-20T01:22:05.676Z,16.50
2019-06-20T01:25:28.737Z,16.50
2019-06-20T01:28:30.155Z,16.40
2019-06-20T01:31:31.637Z,16.40
2019-06-20T01:34:33.084Z,16.40
2019-06-20T01:37:34.569Z,16.30
2019-06-20T01:40:36.080Z,16.30
2019-06-20T01:43:50.251Z,16.30
2019-06-20T01:46:41.640Z,16.40
2019-06-20T01:49:42.969Z,16.40
2019-06-20T01:52:44.685Z,16.40
2019-06-20T01:55:46.074Z,16.30
2019-06-20T01:58:47.520Z,16.30
2019-06-20T02:01:49.003Z,16.30
2019-06-20T02:04:50.436Z,16.30
2019-06-20T02:07:51.706Z,16.30
2019-06-20T02:10:53.258Z,16.30
2019-06-20T02:14:06.897Z,16.30
2019-06-20T02:16:58.191Z,16.20
2019-06-20T02:19:59.661Z,16.30
2019-06-20T02:23:02.217Z,16.30
2019-06-20T02:26:03.748Z,16.10
2019-06-20T02:29:05.298Z,16.30
2019-06-20T02:32:06.775Z,16.40
2019-06-20T02:35:08.414Z,16.30
2019-06-20T02:38:09.911Z,16.40
2019-06-20T02:41:11.333Z,16.40
2019-06-20T02:44:29.293Z,16.40
2019-06-20T02:47:16.199Z,16.40
2019-06-20T02:50:17.682Z,16.40
2019-06-20T02:53:19.318Z,16.50
2019-06-20T02:56:20.811Z,16.50
2019-06-20T02:59:22.332Z,16.60
2019-06-20T03:02:23.801Z,16.70
2019-06-20T03:05:45.094Z,16.80
2019-06-20T03:08:46.482Z,16.80
2019-06-20T03:11:47.989Z,17.00
2019-06-20T03:14:49.742Z,17.00
2019-06-20T03:17:51.301Z,17.10
2019-06-20T03:20:52.790Z,17.20
2019-06-20T03:23:54.322Z,17.30
2019-06-20T03:26:55.703Z,17.40
2019-06-20T03:29:57.230Z,17.40
2019-06-20T03:32:58.765Z,17.50
2019-06-20T03:36:00.246Z,17.50
2019-06-20T03:39:01.630Z,17.60
2019-06-20T03:42:03.249Z,17.70
2019-06-20T03:45:05.452Z,17.90
2019-06-20T03:48:06.880Z,18.00
2019-06-20T03:51:08.427Z,18.10
2019-06-20T03:54:09.902Z,18.20
2019-06-20T03:57:11.298Z,18.30
2019-06-20T04:00:13.154Z,18.40
2019-06-20T04:03:14.643Z,18.50
2019-06-20T04:06:16.172Z,18.70
2019-06-20T04:09:17.783Z,18.80
2019-06-20T04:12:19.416Z,18.90
2019-06-20T04:15:20.893Z,18.90
2019-06-20T04:18:22.574Z,19.00
2019-06-20T04:21:24.074Z,19.00
2019-06-20T04:24:27.839Z,19.00
2019-06-20T04:27:28.570Z,19.10
2019-06-20T04:30:30.097Z,19.20
2019-06-20T04:33:31.409Z,19.30
2019-06-20T04:36:33.076Z,19.40
2019-06-20T04:39:34.398Z,19.50
2019-06-20T04:42:35.843Z,19.60
2019-06-20T04:45:39.218Z,19.90
2019-06-20T04:48:40.801Z,20.10
2019-06-20T04:51:42.327Z,20.30
2019-06-20T04:54:44.878Z,20.50
2019-06-20T04:57:46.542Z,20.60
2019-06-20T05:00:48.073Z,20.70
2019-06-20T05:03:49.571Z,20.70
2019-06-20T05:07:00.432Z,20.90
2019-06-20T05:10:04.014Z,21.00
2019-06-20T05:13:05.600Z,21.20
2019-06-20T05:16:07.115Z,21.40
2019-06-20T05:19:08.537Z,21.60
2019-06-20T05:22:10.038Z,21.70
2019-06-20T05:25:11.652Z,21.80
2019-06-20T05:28:13.038Z,22.00
2019-06-20T05:31:14.405Z,22.10
2019-06-20T05:34:15.789Z,22.40
2019-06-20T05:37:17.836Z,22.60
2019-06-20T05:40:19.624Z,22.40
2019-06-20T05:43:21.093Z,22.50
2019-06-20T05:46:22.387Z,22.60
2019-06-20T05:49:23.852Z,22.70
2019-06-20T05:52:25.223Z,22.70
2019-06-20T05:55:26.885Z,22.60
2019-06-20T05:58:28.270Z,22.60
2019-06-20T06:01:29.793Z,22.80
2019-06-20T06:04:31.213Z,23.00
2019-06-20T06:07:33.226Z,23.00
2019-06-20T06:10:34.873Z,23.10
2019-06-20T06:13:36.603Z,23.20
2019-06-20T06:16:38.082Z,23.10
2019-06-20T06:19:39.501Z,23.20
2019-06-20T06:22:44.513Z,23.40
2019-06-20T06:25:44.394Z,23.40
2019-06-20T06:28:45.908Z,23.50
2019-06-20T06:31:48.085Z,23.80
2019-06-20T06:34:49.467Z,23.80
2019-06-20T06:37:51.100Z,23.80
2019-06-20T06:40:52.612Z,24.00
2019-06-20T06:43:54.103Z,24.00
2019-06-20T06:46:59.438Z,24.00
2019-06-20T06:49:58.883Z,23.80
2019-06-20T06:53:01.360Z,23.80
2019-06-20T06:56:04.164Z,23.90
2019-06-20T06:59:05.953Z,24.20
2019-06-20T07:02:07.527Z,24.40
2019-06-20T07:05:09.205Z,24.60
2019-06-20T07:08:10.757Z,24.70
2019-06-20T07:11:12.243Z,25.00
2019-06-20T07:14:13.804Z,25.20
2019-06-20T07:17:15.293Z,25.00
2019-06-20T07:20:17.156Z,24.90
2019-06-20T07:23:18.561Z,24.90
2019-06-20T07:26:20.082Z,24.90
2019-06-20T07:29:21.608Z,25.00
2019-06-20T07:32:23.167Z,24.90
2019-06-20T07:35:24.672Z,25.00
2019-06-20T07:38:26.250Z,25.30
2019-06-20T07:41:27.590Z,25.30
2019-06-20T07:44:29.121Z,25.40
2019-06-20T07:47:30.734Z,25.40
2019-06-20T07:50:32.282Z,25.60
2019-06-20T07:53:33.683Z,25.40
2019-06-20T07:56:35.375Z,25.20
2019-06-20T07:59:36.655Z,25.20
2019-06-20T08:02:38.328Z,25.30
2019-06-20T08:05:39.811Z,25.30
2019-06-20T08:08:41.413Z,25.20
2019-06-20T08:11:42.962Z,25.30
2019-06-20T08:14:44.535Z,25.30
2019-06-20T08:17:46.086Z,25.50
2019-06-20T08:20:47.714Z,25.50
2019-06-20T08:23:49.195Z,25.80
2019-06-20T08:26:50.942Z,26.40
2019-06-20T08:29:52.569Z,26.70
2019-06-20T08:32:57.430Z,26.80
2019-06-20T08:35:58.938Z,27.00
2019-06-20T08:39:02.617Z,27.30
2019-06-20T08:42:04.861Z,27.60
2019-06-20T08:45:08.706Z,27.80
2019-06-20T08:48:12.005Z,27.90
2019-06-20T08:51:14.826Z,28.20
2019-06-20T08:54:16.375Z,28.20
2019-06-20T08:57:18.417Z,27.90
2019-06-20T09:00:20.654Z,28.10
2019-06-20T09:03:23.366Z,28.20
2019-06-20T09:06:25.185Z,28.40
2019-06-20T09:09:27.084Z,28.70
2019-06-20T09:12:28.564Z,28.90
2019-06-20T09:15:31.054Z,28.60
2019-06-20T09:18:32.814Z,28.50
2019-06-20T09:21:34.525Z,28.50
2019-06-20T09:24:36.086Z,28.30
2019-06-20T09:27:39.839Z,28.50
2019-06-20T09:30:42.237Z,28.40
2019-06-20T09:33:43.916Z,28.50
2019-06-20T09:36:45.843Z,28.80
2019-06-20T09:39:47.794Z,28.70
2019-06-20T09:42:51.141Z,28.70
2019-06-20T09:45:54.427Z,28.40
2019-06-20T09:48:56.277Z,28.40
2019-06-20T09:51:58.725Z,28.30
2019-06-20T09:55:01.454Z,28.20
2019-06-20T09:58:03.662Z,28.30
2019-06-20T10:01:05.306Z,28.50
2019-06-20T10:04:07.130Z,28.50
2019-06-20T10:07:08.631Z,28.70
2019-06-20T10:10:13.472Z,29.00
2019-06-20T10:13:16.344Z,29.10
2019-06-20T10:16:18.629Z,29.20
2019-06-20T10:19:21.291Z,29.40
2019-06-20T10:22:23.146Z,29.60
2019-06-20T10:25:25.439Z,29.90
2019-06-20T10:28:27.578Z,30.20
2019-06-20T10:31:30.715Z,30.40
2019-06-20T10:34:32.269Z,30.60
2019-06-20T10:37:34.348Z,30.90
2019-06-20T10:40:36.352Z,31.00
2019-06-20T10:43:38.155Z,30.90
2019-06-20T10:46:40.001Z,30.60
2019-06-20T10:49:43.457Z,30.50
2019-06-20T10:52:48.176Z,30.30
2019-06-20T10:55:51.918Z,30.60
2019-06-20T10:58:54.121Z,30.30
2019-06-20T11:01:56.976Z,30.30
2019-06-20T11:04:58.991Z,30.40
2019-06-20T11:08:01.201Z,30.20
2019-06-20T11:11:04.391Z,30.50
2019-06-20T11:14:06.161Z,30.30
2019-06-20T11:17:10.547Z,30.90
2019-06-20T11:20:13.882Z,31.20
2019-06-20T11:23:15.617Z,31.20
2019-06-20T11:26:17.477Z,31.50
2019-06-20T11:29:20.284Z,32.00
2019-06-20T11:32:23.802Z,32.40
2019-06-20T11:35:25.868Z,32.30
2019-06-20T11:38:27.532Z,31.60
2019-06-20T11:41:31.050Z,31.50
2019-06-20T11:44:32.712Z,31.70
2019-06-20T11:47:35.510Z,31.40
2019-06-20T11:50:37.980Z,32.00
2019-06-20T11:53:42.643Z,32.60
2019-06-20T11:56:44.351Z,33.00
2019-06-20T11:59:45.993Z,33.70
2019-06-20T12:02:48.328Z,33.30
2019-06-20T12:05:50.379Z,32.70
2019-06-20T12:08:51.894Z,32.30
2019-06-20T12:11:53.483Z,32.60
2019-06-20T12:14:55.717Z,33.60
2019-06-20T12:17:57.506Z,34.30
2019-06-20T12:20:59.137Z,33.80
2019-06-20T12:24:00.707Z,32.60
2019-06-20T12:27:04.172Z,31.50
2019-06-20T12:30:11.023Z,30.70
2019-06-20T12:33:13.271Z,30.10
2019-06-20T12:36:15.232Z,30.00
2019-06-20T12:39:17.197Z,30.70
2019-06-20T12:42:19.102Z,31.20
2019-06-20T12:45:22.794Z,30.80
2019-06-20T12:48:25.164Z,31.00
2019-06-20T12:51:27.074Z,30.90
2019-06-20T12:54:30.272Z,30.30
2019-06-20T12:57:32.107Z,31.10
2019-06-20T13:00:33.817Z,31.30
2019-06-20T13:03:38.575Z,33.10
2019-06-20T13:06:40.502Z,33.90
2019-06-20T13:09:43.966Z,35.00
2019-06-20T13:12:46.528Z,34.70
2019-06-20T13:15:48.998Z,34.00
2019-06-20T13:18:51.020Z,33.30
2019-06-20T13:21:54.235Z,33.40
2019-06-20T13:24:56.387Z,34.10
2019-06-20T13:27:58.245Z,33.90
2019-06-20T13:31:01.104Z,32.40
2019-06-20T13:34:03.561Z,31.70
2019-06-20T13:37:05.823Z,31.40
2019-06-20T13:40:10.071Z,31.80
2019-06-20T13:43:12.566Z,31.20
2019-06-20T13:46:15.810Z,32.60
2019-06-20T13:49:18.239Z,33.50
2019-06-20T13:52:20.529Z,33.30
2019-06-20T13:55:23.887Z,32.80
2019-06-20T13:58:25.936Z,32.60
2019-06-20T14:01:29.205Z,32.00
2019-06-20T14:04:30.755Z,32.40
2019-06-20T14:07:33.606Z,32.60
2019-06-20T14:10:35.256Z,33.60
2019-06-20T14:13:37.113Z,33.70
2019-06-20T14:16:41.230Z,34.10
2019-06-20T14:19:43.733Z,34.10
2019-06-20T14:22:46.076Z,33.30
2019-06-20T14:25:49.833Z,33.00
2019-06-20T14:28:51.696Z,33.20
2019-06-20T14:31:53.773Z,34.20
2019-06-20T14:34:58.028Z,34.90
2019-06-20T14:38:00.780Z,34.90
2019-06-20T14:41:02.587Z,34.70
2019-06-20T14:44:06.067Z,35.30
2019-06-20T14:47:09.391Z,36.50
2019-06-20T14:50:13.661Z,37.10
2019-06-20T14:53:20.012Z,36.00
2019-06-20T14:56:22.915Z,35.20
2019-06-20T14:59:24.882Z,34.20
2019-06-20T15:02:38.010Z,32.90
2019-06-20T15:05:34.634Z,32.60
2019-06-20T15:08:34.397Z,33.00
2019-06-20T15:11:35.916Z,33.70
2019-06-20T15:14:37.483Z,33.70
2019-06-20T15:17:39.760Z,34.80
2019-06-20T15:20:42.166Z,36.80
2019-06-20T15:23:47.234Z,37.00
2019-06-20T15:26:49.442Z,37.50
2019-06-20T15:29:52.422Z,37.90
2019-06-20T15:33:06.974Z,37.70
2019-06-20T15:35:58.486Z,38.50
2019-06-20T15:39:00.349Z,37.50
2019-06-20T15:42:02.381Z,36.90
2019-06-20T15:45:08.581Z,36.50
2019-06-20T15:48:10.095Z,35.50
2019-06-20T15:51:11.679Z,36.00
2019-06-20T15:54:13.307Z,36.50
2019-06-20T15:57:14.993Z,37.10
2019-06-20T16:00:18.680Z,37.70
2019-06-20T16:03:20.279Z,38.00
2019-06-20T16:06:21.985Z,38.00
2019-06-20T16:09:25.352Z,37.20
2019-06-20T16:12:26.867Z,35.30
2019-06-20T16:15:30.648Z,33.60
2019-06-20T16:18:32.156Z,32.30
2019-06-20T16:21:33.770Z,31.20
2019-06-20T16:24:35.604Z,30.40
2019-06-20T16:27:37.547Z,29.90
2019-06-20T16:30:39.255Z,29.30
2019-06-20T16:33:41.015Z,28.70
2019-06-20T16:36:42.658Z,28.20
2019-06-20T16:39:46.442Z,27.80
2019-06-20T16:42:48.707Z,27.50
2019-06-20T16:45:50.585Z,27.40
2019-06-20T16:48:54.190Z,27.30
2019-06-20T16:51:57.031Z,27.00
2019-06-20T16:54:59.122Z,27.20
2019-06-20T16:58:01.052Z,27.70
2019-06-20T17:01:03.717Z,28.50
2019-06-20T17:04:05.644Z,28.90
2019-06-20T17:07:07.668Z,28.90
2019-06-20T17:10:12.083Z,28.60
2019-06-20T17:13:13.753Z,28.20
2019-06-20T17:16:17.370Z,27.60
2019-06-20T17:19:19.118Z,27.10
2019-06-20T17:22:21.562Z,26.70
2019-06-20T17:25:23.473Z,26.40
2019-06-20T17:28:25.527Z,26.00
2019-06-20T17:31:27.321Z,25.60
2019-06-20T17:34:29.932Z,25.30
2019-06-20T17:37:31.557Z,25.20
2019-06-20T17:40:33.916Z,25.10
2019-06-20T17:43:36.663Z,25.00
2019-06-20T17:46:38.929Z,24.90
2019-06-20T17:49:41.941Z,24.80
2019-06-20T17:52:43.991Z,24.80
2019-06-20T17:55:46.458Z,24.60
2019-06-20T17:58:48.748Z,24.50
2019-06-20T18:01:51.693Z,24.50
2019-06-20T18:04:54.099Z,24.40
2019-06-20T18:07:57.293Z,24.20
2019-06-20T18:10:59.636Z,24.00
2019-06-20T18:14:01.560Z,23.90
2019-06-20T18:17:03.509Z,23.70
2019-06-20T18:20:07.135Z,23.60
2019-06-20T18:23:11.074Z,23.60
2019-06-20T18:26:13.447Z,23.50
2019-06-20T18:29:15.453Z,23.50
2019-06-20T18:32:17.140Z,23.40
2019-06-20T18:35:19.284Z,23.30
2019-06-20T18:38:21.887Z,23.20
2019-06-20T18:41:23.776Z,23.20
2019-06-20T18:44:25.952Z,23.00
2019-06-20T18:47:28.475Z,22.90
2019-06-20T18:50:32.259Z,22.90
2019-06-20T18:53:35.313Z,22.80
2019-06-20T18:56:37.454Z,22.60
2019-06-20T18:59:39.748Z,22.50
2019-06-20T19:02:42.392Z,22.40
2019-06-20T19:05:46.971Z,22.20
2019-06-20T19:08:50.743Z,22.00
2019-06-20T19:11:56.240Z,21.80
2019-06-20T19:14:59.523Z,21.70
2019-06-20T19:18:03.646Z,21.60
2019-06-20T19:21:07.655Z,21.50
2019-06-20T19:24:11.627Z,21.40
2019-06-20T19:27:15.770Z,21.40
2019-06-20T19:30:22.278Z,21.40
2019-06-20T19:33:26.417Z,21.40
2019-06-20T19:36:31.843Z,21.30
2019-06-20T19:39:35.024Z,21.30
2019-06-20T19:42:37.798Z,21.20
2019-06-20T19:45:39.492Z,21.10
2019-06-20T19:48:42.810Z,21.10
2019-06-20T19:51:45.058Z,21.10
2019-06-20T19:54:47.633Z,21.10
2019-06-20T19:57:50.941Z,21.10
2019-06-20T20:00:53.462Z,21.10
2019-06-20T20:03:55.735Z,21.00
2019-06-20T20:06:59.380Z,20.90
2019-06-20T20:10:02.181Z,20.90
2019-06-20T20:13:04.450Z,21.00
2019-06-20T20:16:05.964Z,21.00
2019-06-20T20:19:10.350Z,21.00
2019-06-20T20:22:11.922Z,21.00
2019-06-20T20:25:15.553Z,21.00
2019-06-20T20:28:17.613Z,21.00
2019-06-20T20:31:21.397Z,21.00
2019-06-20T20:34:24.325Z,21.00
2019-06-20T20:37:27.560Z,20.90
2019-06-20T20:40:29.183Z,20.80
2019-06-20T20:43:31.963Z,20.70
2019-06-20T20:46:33.532Z,20.70
2019-06-20T20:49:35.826Z,20.60
2019-06-20T20:52:37.983Z,20.50
2019-06-20T20:55:39.641Z,20.40
2019-06-20T20:58:45.122Z,20.40
2019-06-20T21:01:48.668Z,20.30
2019-06-20T21:04:50.761Z,20.20
2019-06-20T21:07:54.962Z,20.10
2019-06-20T21:10:56.515Z,20.10
2019-06-20T21:13:57.851Z,20.10
2019-06-20T21:16:59.481Z,20.20
2019-06-20T21:20:01.343Z,20.20
2019-06-20T21:23:02.827Z,20.20
2019-06-20T21:26:05.562Z,20.30
2019-06-20T21:29:07.277Z,20.20
2019-06-20T21:32:09.290Z,20.20
2019-06-20T21:35:11.681Z,20.20
2019-06-20T21:38:13.372Z,20.30
2019-06-20T21:41:16.559Z,20.50
2019-06-20T21:44:18.657Z,20.50
2019-06-20T21:47:20.448Z,20.50
2019-06-20T21:50:22.027Z,20.50
2019-06-20T21:53:23.387Z,20.40
2019-06-20T21:56:25.251Z,20.30
2019-06-20T21:59:26.619Z,20.30
2019-06-20T22:02:28.193Z,20.10
2019-06-20T22:05:29.621Z,20.00
2019-06-20T22:08:31.177Z,19.90
2019-06-20T22:11:32.682Z,19.80
2019-06-20T22:14:34.268Z,19.80
2019-06-20T22:17:35.733Z,19.70
2019-06-20T22:20:37.237Z,19.70
2019-06-20T22:23:38.951Z,19.60
2019-06-20T22:26:40.425Z,19.60
2019-06-20T22:29:42.025Z,19.50
2019-06-20T22:32:43.561Z,19.50
2019-06-20T22:35:45.911Z,19.50
2019-06-20T22:38:47.590Z,19.40
2019-06-20T22:41:49.064Z,19.40
2019-06-20T22:44:50.571Z,19.30
2019-06-20T22:47:51.915Z,19.20
2019-06-20T22:50:53.388Z,19.10
2019-06-20T22:53:54.779Z,18.90
2019-06-20T22:56:56.211Z,18.80
2019-06-20T22:59:57.573Z,18.80
2019-06-20T23:02:59.089Z,18.80
2019-06-20T23:06:00.335Z,18.80
2019-06-20T23:09:01.757Z,18.80
2019-06-20T23:12:03.265Z,18.70
2019-06-20T23:15:06.706Z,18.70
2019-06-20T23:18:08.081Z,18.60
2019-06-20T23:21:09.755Z,18.60
2019-06-20T23:24:11.138Z,18.60
2019-06-20T23:27:14.225Z,18.60
2019-06-20T23:30:16.320Z,18.60
2019-06-20T23:33:17.615Z,18.50
2019-06-20T23:36:18.881Z,18.50
2019-06-20T23:39:20.271Z,18.50
2019-06-20T23:42:21.660Z,18.40
2019-06-20T23:45:23.208Z,18.40
2019-06-20T23:48:24.460Z,18.30
2019-06-20T23:51:27.555Z,18.30
2019-06-20T23:54:28.919Z,18.20
2019-06-20T23:57:30.429Z,18.10
